Reno, NV

4:25 PM PDT on August 27, 2014 (GMT -0700)
MidTown | Change Station
CLOSE
Current Station
Personal Weather Station
Location: Reno, NV
Elevation: 4491 ft
Nearby Weather Stations

Elev 4491 ft 39.52 °N, 119.81 °W | Updated 5 minutes ago

Partly Cloudy
Partly Cloudy
87.6 °F
Feels Like 84 °F
N
-
Wind Variable Wind from North

Today
High -- | Low -- °F
--% Chance of Precip.
Yesterday
High -- | Low -- °F
Precip. -- in
6:22 AM 7:37 PM
Waxing Crescent, 5% visible
Pressure 29.99 in
Visibility 10.0 miles
Clouds Few 9000 ft
Heat Index 84 °F
Dew Point 52 °F
Humidity 20%
Rainfall 0.00 in
Snow Depth Not available.
UV 6 out of 12
Pollen 8.10 out of 12
Air Quality Not available.
Flu Activity Not available.
METAR KRNO 272255Z 04005KT 10SM FEW090 31/M01 A3015 RMK AO2 SLP155 T03111006

More Conditions Fewer Conditions

Pressure 29.99 in
Visibility 10.0 miles
Clouds Few 9000 ft
Heat Index 84 °F
Dew Point 52 °F
Humidity 20%
Rainfall 0.00 in
Snow Depth Not available.
UV 6 out of 12
Pollen 8.10 out of 12
Air Quality Not available.
Flu Activity Not available.
METAR KRNO 272255Z 04005KT 10SM FEW090 31/M01 A3015 RMK AO2 SLP155 T03111006

More Conditions Fewer Conditions

10-Day Weather Forecast

Almanac

Astronomy

Aug. 27, 2014 Rise Set
Actual Time 6:22 AM PDT 7:37 PM PDT
Civil Twilight 5:55 AM PDT 8:05 PM PDT
Nautical Twilight 5:21 AM PDT 8:38 PM PDT
Astronomical Twilight 4:46 AM PDT 9:13 PM PDT
Moon 8:23 AM PDT 8:33 PM PDT
Length of Visible Light 14h 10m
Length of Day
13h 14m
Tomorrow will be 2m 27s shorter.
Waxing Crescent, 5% of the Moon is Illuminated
Today
Waxing Crescent
Sep 2
First Quarter
Sep 8
Full
Sep 15
Last Quarter
Sep 24
New

Today's Extremes

State Highs State Lows

Community

WunderPhotos

Upload Photos

1,747,816 photos uploaded!

Nearby

Snow Depth

Station Depth Elevation
Big Creek Summit 0 in 8700 ft
Sheldon 0 in 5860 ft
Lamance Creek 0 in 6000 ft
Buckskin Lower 2 in 6700 ft
Diamond Peak 0 in 8000 ft

Earthquake Activity

City Distance Mag. Time & Date
No recent earthquake activity has been reported nearby.
Minimum magnitude displayed is 2.5.

Coastal Water Temperatures

Place Temperature
No Stations Reporting

Nearby Weather Stations